Time;durP1;ratioP1;P1;durP2;ratioP2;P2;SDS_P1;SDS_P2;PMS_P1;PMS_P2;Temp;Humidity;BMP_temperature;BMP_pressure;BME280_temperature;BME280_humidity;BME280_pressure;Samples;Min_cycle;Max_cycle;Signal;HPM_P1;HPM_P2
2021/03/19 00:01:59;;;;;;;5.63;3.92;;;6.00;99.90;;;;;;4160397;28;20421;-69
2021/03/19 00:03:59;;;;;;;6.13;4.40;;;6.00;99.90;;;;;;4161217;28;20514;-68
2021/03/19 00:06:00;;;;;;;7.13;4.20;;;5.90;99.90;;;;;;4161028;28;20267;-68
2021/03/19 00:08:01;;;;;;;9.65;5.03;;;5.90;99.90;;;;;;4161687;28;20056;-68
2021/03/19 00:10:03;;;;;;;5.95;4.00;;;5.90;99.90;;;;;;4161547;28;20108;-68
2021/03/19 00:12:04;;;;;;;8.77;4.93;;;5.90;99.90;;;;;;4160077;28;20422;-69
2021/03/19 00:14:06;;;;;;;6.63;4.53;;;5.90;99.90;;;;;;4161464;28;20053;-68
2021/03/19 00:16:07;;;;;;;8.80;4.15;;;5.80;99.90;;;;;;4161100;28;20079;-68
2021/03/19 00:18:08;;;;;;;6.55;4.28;;;5.90;99.90;;;;;;4160944;28;20175;-68
2021/03/19 00:20:11;;;;;;;6.05;4.55;;;5.80;99.90;;;;;;4160004;28;20041;-68
2021/03/19 00:22:11;;;;;;;8.30;4.90;;;5.80;99.90;;;;;;4160987;28;20045;-68
2021/03/19 00:24:12;;;;;;;6.35;4.20;;;5.90;99.90;;;;;;4156672;28;20037;-69
2021/03/19 00:26:13;;;;;;;8.43;4.85;;;5.80;99.90;;;;;;4149355;28;20505;-69
2021/03/19 00:28:17;;;;;;;10.07;5.25;;;5.70;99.90;;;;;;4144094;28;20041;-68
2021/03/19 00:30:18;;;;;;;9.35;5.88;;;5.70;99.90;;;;;;4160125;28;20116;-68
2021/03/19 00:32:19;;;;;;;8.38;5.38;;;5.60;99.90;;;;;;4158563;28;20038;-69
2021/03/19 00:34:19;;;;;;;8.55;4.95;;;5.60;99.90;;;;;;4159302;28;20029;-68
2021/03/19 00:36:20;;;;;;;9.27;5.28;;;5.60;99.90;;;;;;4161296;28;20038;-68
2021/03/19 00:38:21;;;;;;;8.15;5.70;;;5.60;99.90;;;;;;4160901;28;20622;-69
2021/03/19 00:40:22;;;;;;;9.55;5.68;;;5.50;99.90;;;;;;4160702;28;20164;-68
2021/03/19 00:42:23;;;;;;;10.93;6.07;;;5.50;99.90;;;;;;4161210;28;20053;-69
2021/03/19 00:44:23;;;;;;;9.30;6.50;;;5.50;99.90;;;;;;4152198;28;20030;-69
2021/03/19 00:46:24;;;;;;;8.60;5.80;;;5.50;99.90;;;;;;4157904;28;20064;-69
2021/03/19 00:48:25;;;;;;;10.30;5.70;;;5.40;99.90;;;;;;4141144;28;20030;-69
2021/03/19 00:50:32;;;;;;;8.35;6.03;;;5.40;99.90;;;;;;4155254;28;20030;-69
2021/03/19 00:52:33;;;;;;;7.65;5.45;;;5.40;99.90;;;;;;4143477;28;20030;-69
2021/03/19 00:54:33;;;;;;;7.07;5.30;;;5.30;99.90;;;;;;4158195;28;20647;-69
2021/03/19 00:56:34;;;;;;;8.25;5.45;;;5.30;99.90;;;;;;4158965;28;20029;-69
2021/03/19 00:58:34;;;;;;;10.30;5.47;;;5.30;99.90;;;;;;4156637;28;20037;-68
2021/03/19 01:00:36;;;;;;;6.18;4.82;;;5.30;99.90;;;;;;4155473;28;20045;-69
2021/03/19 01:02:37;;;;;;;7.57;5.65;;;5.30;99.90;;;;;;4160571;28;20041;-69
2021/03/19 01:04:38;;;;;;;8.77;5.50;;;5.20;99.90;;;;;;4159354;28;20045;-69
2021/03/19 01:06:38;;;;;;;9.68;5.28;;;5.20;99.90;;;;;;4158835;28;20121;-69
2021/03/19 01:08:39;;;;;;;6.70;4.93;;;5.20;99.90;;;;;;4159235;28;20453;-69
2021/03/19 01:10:44;;;;;;;8.85;4.88;;;5.30;99.90;;;;;;4153737;28;20032;-69
2021/03/19 01:12:45;;;;;;;9.25;6.07;;;5.30;99.90;;;;;;4158068;28;20036;-69
2021/03/19 01:14:45;;;;;;;7.25;5.40;;;5.20;99.90;;;;;;4156041;28;20030;-69
2021/03/19 01:16:46;;;;;;;9.38;5.43;;;5.20;99.90;;;;;;4157561;28;20029;-69
2021/03/19 01:18:47;;;;;;;7.13;5.00;;;5.20;99.90;;;;;;4156501;28;20049;-69
2021/03/19 01:20:49;;;;;;;8.10;5.32;;;5.10;99.90;;;;;;4155724;28;20473;-69
2021/03/19 01:22:49;;;;;;;9.60;5.53;;;5.10;99.90;;;;;;4158196;28;20489;-69
2021/03/19 01:24:50;;;;;;;7.45;5.88;;;5.10;99.90;;;;;;4157821;28;20051;-69
2021/03/19 01:26:51;;;;;;;6.22;4.20;;;5.10;99.90;;;;;;4160557;28;20038;-69
2021/03/19 01:28:51;;;;;;;7.47;5.60;;;5.10;99.90;;;;;;4160733;28;20042;-68
2021/03/19 01:30:52;;;;;;;8.90;4.95;;;5.10;99.90;;;;;;4159004;28;20029;-69
2021/03/19 01:32:53;;;;;;;9.90;5.13;;;5.00;99.90;;;;;;4159896;28;20470;-69
2021/03/19 01:34:53;;;;;;;9.32;4.80;;;5.00;99.90;;;;;;4156418;28;20041;-69
2021/03/19 01:36:54;;;;;;;6.22;4.72;;;5.00;99.90;;;;;;4159520;28;20417;-69
2021/03/19 01:38:55;;;;;;;6.50;4.13;;;5.00;99.90;;;;;;4158639;28;20425;-69
2021/03/19 01:40:56;;;;;;;8.05;4.30;;;4.90;99.90;;;;;;4158735;28;20704;-69
2021/03/19 01:43:10;;;;;;;7.80;4.15;;;4.90;99.90;;;;;;4159841;28;20045;-69
2021/03/19 01:45:48;;;;;;;6.50;4.03;;;4.90;99.90;;;;;;4150588;28;20034;-69
2021/03/19 01:48:30;;;;;;;7.43;4.43;;;4.80;99.90;;;;;;4159314;28;20034;-69
2021/03/19 01:51:07;;;;;;;6.55;3.85;;;4.80;99.90;;;;;;4157057;28;20144;-69
2021/03/19 01:53:45;;;;;;;7.90;4.00;;;4.80;99.90;;;;;;4143669;28;20060;-69
2021/03/19 01:56:23;;;;;;;5.20;3.75;;;4.80;99.90;;;;;;4140388;28;20037;-69
2021/03/19 01:59:01;;;;;;;5.00;3.47;;;4.80;99.90;;;;;;4162549;28;20029;-69
2021/03/19 02:01:39;;;;;;;11.32;4.30;;;4.70;99.90;;;;;;4154441;28;20064;-69
2021/03/19 02:04:17;;;;;;;5.55;3.80;;;4.70;99.90;;;;;;4146382;28;20420;-69
2021/03/19 02:06:55;;;;;;;7.60;3.78;;;4.70;99.90;;;;;;4158951;28;20033;-69
2021/03/19 02:09:32;;;;;;;4.78;3.63;;;4.70;99.90;;;;;;4155956;28;20056;-69
2021/03/19 02:12:27;;;;;;;6.00;3.75;;;4.70;99.90;;;;;;4153976;28;20049;-69
2021/03/19 02:15:04;;;;;;;5.63;3.60;;;4.80;99.90;;;;;;4121841;28;20074;-69
2021/03/19 02:17:42;;;;;;;9.52;4.40;;;4.80;99.90;;;;;;4129762;28;20038;-69
2021/03/19 02:20:20;;;;;;;8.02;3.83;;;4.70;99.90;;;;;;4146386;28;20030;-69
2021/03/19 02:22:58;;;;;;;9.85;4.30;;;4.70;99.90;;;;;;4152214;28;20072;-69
2021/03/19 02:25:36;;;;;;;9.30;4.60;;;4.70;99.90;;;;;;4158856;28;20547;-69
2021/03/19 02:28:13;;;;;;;8.00;3.97;;;4.70;99.90;;;;;;4151458;28;20114;-69
2021/03/19 02:30:51;;;;;;;9.18;4.47;;;4.70;99.90;;;;;;4157739;28;20508;-69
2021/03/19 02:32:52;;;;;;;5.93;4.00;;;4.70;99.90;;;;;;4154209;28;20108;-69
2021/03/19 02:35:13;;;;;;;6.80;3.85;;;4.70;99.90;;;;;;4150410;28;20033;-69
2021/03/19 02:37:20;;;;;;;7.78;4.05;;;4.70;99.90;;;;;;4152704;28;20041;-69
2021/03/19 02:39:21;;;;;;;5.57;4.28;;;4.60;99.90;;;;;;4157812;28;20497;-69
2021/03/19 02:41:23;;;;;;;7.55;3.85;;;4.60;99.90;;;;;;4156183;28;20042;-69
2021/03/19 02:43:26;;;;;;;8.95;4.10;;;4.60;99.90;;;;;;4158955;28;20033;-69
2021/03/19 02:45:26;;;;;;;5.60;3.70;;;4.60;99.90;;;;;;4148296;28;20490;-69
2021/03/19 02:47:27;;;;;;;7.95;3.90;;;4.60;99.90;;;;;;4159914;28;20037;-69
2021/03/19 02:49:28;;;;;;;6.97;3.70;;;4.50;99.90;;;;;;4157431;28;20333;-69
2021/03/19 02:51:29;;;;;;;7.78;3.55;;;4.50;99.90;;;;;;4156651;28;20485;-69
2021/03/19 02:53:32;;;;;;;4.35;3.22;;;4.50;99.90;;;;;;4155646;28;20041;-69
2021/03/19 02:55:33;;;;;;;;;;;4.50;99.90;;;;;;4159510;28;20083;-69
2021/03/19 02:57:34;;;;;;;6.82;3.38;;;4.50;99.90;;;;;;4156730;28;19909;-69
2021/03/19 02:59:34;;;;;;;8.00;3.40;;;4.50;99.90;;;;;;4155754;28;20049;-69
2021/03/19 03:01:35;;;;;;;5.18;3.28;;;4.40;99.90;;;;;;4157223;28;20033;-69
2021/03/19 03:03:36;;;;;;;6.05;3.90;;;4.40;99.90;;;;;;4158197;28;20030;-69
2021/03/19 03:05:36;;;;;;;6.25;4.15;;;4.40;99.90;;;;;;4156060;28;20041;-69
2021/03/19 03:07:37;;;;;;;6.60;3.58;;;4.40;99.90;;;;;;4156060;28;20071;-69
2021/03/19 03:09:37;;;;;;;6.50;3.97;;;4.30;99.90;;;;;;4157268;28;21585;-69
2021/03/19 03:11:39;;;;;;;6.35;3.70;;;4.30;99.90;;;;;;4157249;28;20030;-69
2021/03/19 03:13:40;;;;;;;9.48;4.18;;;4.30;99.90;;;;;;4157216;28;20046;-69
2021/03/19 03:15:42;;;;;;;6.75;3.75;;;4.30;99.90;;;;;;4155124;28;20084;-69
2021/03/19 03:17:43;;;;;;;9.20;4.05;;;4.30;99.90;;;;;;4154937;28;20045;-69
2021/03/19 03:19:44;;;;;;;6.93;4.20;;;4.20;99.90;;;;;;4158397;28;20033;-69
2021/03/19 03:21:46;;;;;;;5.63;4.05;;;4.20;99.90;;;;;;4154689;28;20040;-69
2021/03/19 03:23:46;;;;;;;7.20;4.10;;;4.20;99.90;;;;;;4157643;28;20061;-69
2021/03/19 03:25:48;;;;;;;7.03;3.88;;;4.10;99.90;;;;;;4158017;28;20091;-69
2021/03/19 03:27:49;;;;;;;6.82;3.97;;;4.10;99.90;;;;;;4158366;28;20061;-69
2021/03/19 03:29:50;;;;;;;11.90;5.38;;;4.10;99.90;;;;;;4158535;28;20038;-69
2021/03/19 03:31:52;;;;;;;7.57;4.25;;;4.10;99.90;;;;;;4158881;28;20116;-69
2021/03/19 03:33:52;;;;;;;7.28;4.55;;;4.10;99.90;;;;;;4159232;28;20042;-69
2021/03/19 03:35:54;;;;;;;9.60;4.53;;;4.10;99.90;;;;;;4157383;28;20371;-69
2021/03/19 03:37:55;;;;;;;7.55;4.63;;;4.10;99.90;;;;;;4156961;28;20034;-69
2021/03/19 03:39:55;;;;;;;7.50;4.30;;;4.00;99.90;;;;;;4157285;28;20120;-69
2021/03/19 03:41:58;;;;;;;7.50;4.18;;;4.00;99.90;;;;;;4157298;28;20033;-69
2021/03/19 03:43:59;;;;;;;11.00;4.97;;;4.00;99.90;;;;;;4157812;28;20042;-69
2021/03/19 03:46:00;;;;;;;8.73;4.22;;;4.00;99.90;;;;;;4156796;28;20062;-69
2021/03/19 03:48:01;;;;;;;9.65;5.20;;;4.00;99.90;;;;;;4158184;28;20410;-69
2021/03/19 03:50:06;;;;;;;7.05;4.00;;;4.00;99.90;;;;;;4159381;28;20112;-69
2021/03/19 03:52:07;;;;;;;5.40;4.13;;;3.90;99.90;;;;;;4154136;28;20041;-69
2021/03/19 03:54:08;;;;;;;7.93;4.28;;;3.90;99.90;;;;;;4159483;28;20038;-69
2021/03/19 03:56:11;;;;;;;10.07;4.72;;;3.90;99.90;;;;;;4158367;28;20374;-69
2021/03/19 03:58:13;;;;;;;8.35;5.28;;;3.90;99.90;;;;;;4153356;28;20041;-69
2021/03/19 04:00:17;;;;;;;8.63;4.55;;;3.90;99.90;;;;;;4158819;28;20040;-69
2021/03/19 04:02:26;;;;;;;7.78;4.65;;;3.90;99.90;;;;;;4158254;28;20193;-69
2021/03/19 04:04:26;;;;;;;11.30;5.38;;;3.90;99.90;;;;;;4156375;28;20038;-69
2021/03/19 04:06:27;;;;;;;6.78;4.90;;;3.90;99.90;;;;;;4150973;28;20112;-69
2021/03/19 04:08:29;;;;;;;8.52;5.35;;;3.90;99.90;;;;;;4159410;28;20289;-69
2021/03/19 04:10:30;;;;;;;8.20;5.18;;;3.80;99.90;;;;;;4159233;28;20038;-69
2021/03/19 04:12:38;;;;;;;10.80;5.18;;;3.80;99.90;;;;;;4156925;28;20568;-69
2021/03/19 04:14:40;;;;;;;7.85;4.93;;;3.80;99.90;;;;;;4157301;28;20033;-69
2021/03/19 04:16:40;;;;;;;12.35;5.38;;;3.90;99.90;;;;;;4161651;28;20026;-69
2021/03/19 04:18:42;;;;;;;6.75;4.97;;;3.80;99.90;;;;;;4160494;28;20146;-69
2021/03/19 04:20:44;;;;;;;6.53;4.47;;;3.80;99.90;;;;;;4159528;28;20041;-69
2021/03/19 04:22:45;;;;;;;;;;;3.80;99.90;;;;;;4161574;28;20439;-69
2021/03/19 04:24:48;;;;;;;9.20;5.00;;;3.90;99.90;;;;;;4159540;28;19944;-69
2021/03/19 04:26:48;;;;;;;;;;;3.90;99.90;;;;;;4156057;28;20077;-69
2021/03/19 04:28:49;;;;;;;9.00;5.18;;;3.80;99.90;;;;;;4159824;28;19909;-69
2021/03/19 04:30:50;;;;;;;9.50;5.05;;;3.80;99.90;;;;;;4159997;28;20030;-69
2021/03/19 04:32:51;;;;;;;8.07;4.68;;;3.80;99.90;;;;;;4159430;28;20068;-69
2021/03/19 04:34:53;;;;;;;7.38;4.43;;;3.80;99.90;;;;;;4158265;28;20029;-69
2021/03/19 04:36:56;;;;;;;7.32;5.00;;;3.80;99.90;;;;;;4161528;28;20064;-69
2021/03/19 04:39:00;;;;;;;7.88;4.75;;;3.90;99.90;;;;;;4161694;28;20056;-68
2021/03/19 04:41:00;;;;;;;8.55;4.20;;;3.80;99.90;;;;;;4160359;28;20037;-69
2021/03/19 04:43:02;;;;;;;6.50;4.85;;;3.80;99.90;;;;;;4158666;28;20037;-69
2021/03/19 04:45:04;;;;;;;7.05;4.82;;;3.80;99.90;;;;;;4145178;28;20034;-69
2021/03/19 04:47:06;;;;;;;7.87;4.87;;;3.80;99.90;;;;;;4131786;28;20049;-69
2021/03/19 04:49:06;;;;;;;8.15;5.18;;;3.80;99.90;;;;;;4154244;28;20021;-69
2021/03/19 04:51:07;;;;;;;8.32;5.50;;;3.80;99.90;;;;;;4155273;28;20061;-69
2021/03/19 04:53:07;;;;;;;11.40;5.38;;;3.80;99.90;;;;;;4159381;28;20489;-69
2021/03/19 04:55:09;;;;;;;10.60;5.28;;;3.80;99.90;;;;;;4154105;28;20085;-69
2021/03/19 04:57:10;;;;;;;7.00;5.00;;;3.80;99.90;;;;;;4156594;28;20112;-69
2021/03/19 04:59:11;;;;;;;5.65;4.35;;;3.80;99.90;;;;;;4157572;28;20025;-69
2021/03/19 05:01:13;;;;;;;7.57;4.65;;;3.70;99.90;;;;;;4159837;28;20918;-69
2021/03/19 05:03:13;;;;;;;8.68;4.90;;;3.80;99.90;;;;;;4151569;28;20038;-69
2021/03/19 05:05:25;;;;;;;8.18;5.15;;;3.80;99.90;;;;;;4153324;28;20038;-69
2021/03/19 05:07:26;;;;;;;8.15;4.70;;;3.70;99.90;;;;;;4158589;28;20053;-69
2021/03/19 05:09:31;;;;;;;8.10;5.03;;;3.70;99.90;;;;;;4154436;28;20029;-69
2021/03/19 05:11:32;;;;;;;7.60;4.85;;;3.80;99.90;;;;;;4160051;28;20033;-69
2021/03/19 05:13:33;;;;;;;6.40;4.20;;;3.70;99.90;;;;;;4159354;28;20049;-69
2021/03/19 05:15:37;;;;;;;8.35;4.50;;;3.70;99.90;;;;;;4161121;28;20406;-69
2021/03/19 05:17:38;;;;;;;7.38;4.97;;;3.70;99.90;;;;;;4158731;28;20029;-69
2021/03/19 05:19:39;;;;;;;6.43;4.78;;;3.70;99.90;;;;;;4160741;28;20037;-69
2021/03/19 05:21:40;;;;;;;7.03;4.65;;;3.70;99.90;;;;;;4139080;28;20035;-69
2021/03/19 05:23:40;;;;;;;7.80;4.93;;;3.70;99.90;;;;;;4152484;28;20037;-69
2021/03/19 05:25:41;;;;;;;7.88;5.65;;;3.70;99.90;;;;;;4142273;28;20038;-69
2021/03/19 05:27:44;;;;;;;9.27;5.00;;;3.70;99.90;;;;;;4156628;28;20095;-69
2021/03/19 05:29:46;;;;;;;8.85;5.18;;;3.60;99.90;;;;;;4151106;28;20133;-69
2021/03/19 05:31:47;;;;;;;9.73;5.20;;;3.70;99.90;;;;;;4158870;28;20409;-69
2021/03/19 05:33:51;;;;;;;8.27;5.32;;;3.60;99.90;;;;;;4160384;28;20132;-69
2021/03/19 05:35:52;;;;;;;7.43;5.05;;;3.60;99.90;;;;;;4155085;28;20476;-69
2021/03/19 05:37:53;;;;;;;9.25;5.45;;;3.60;99.90;;;;;;4159765;28;20037;-69
2021/03/19 05:39:53;;;;;;;9.73;5.22;;;3.60;99.90;;;;;;4159818;28;20057;-69
2021/03/19 05:41:54;;;;;;;7.18;4.93;;;3.60;99.90;;;;;;4156445;28;20049;-69
2021/03/19 05:44:07;;;;;;;7.78;5.50;;;3.60;99.90;;;;;;4150692;28;20068;-69
2021/03/19 05:46:14;;;;;;;7.93;5.22;;;3.50;99.90;;;;;;4144035;28;20038;-69
2021/03/19 05:48:14;;;;;;;8.52;5.15;;;3.50;99.90;;;;;;4152723;28;20025;-69
2021/03/19 05:50:25;;;;;;;6.85;4.78;;;3.50;99.90;;;;;;4159601;28;20040;-69
2021/03/19 05:52:35;;;;;;;7.88;4.90;;;3.50;99.90;;;;;;4130344;28;20176;-69
2021/03/19 05:54:42;;;;;;;9.18;5.18;;;3.50;99.90;;;;;;4154338;28;20116;-69
2021/03/19 05:56:44;;;;;;;6.95;4.78;;;3.50;99.90;;;;;;4160547;28;20120;-69
2021/03/19 05:58:45;;;;;;;6.40;4.43;;;3.50;99.90;;;;;;4156172;28;20046;-69
2021/03/19 06:00:46;;;;;;;8.13;5.00;;;3.50;99.90;;;;;;4158620;28;20029;-69
2021/03/19 06:02:47;;;;;;;8.88;5.38;;;3.40;99.90;;;;;;4157505;28;20588;-69
2021/03/19 06:05:03;;;;;;;11.07;5.22;;;3.40;99.90;;;;;;4160128;28;20045;-69
2021/03/19 06:07:03;;;;;;;9.00;5.57;;;3.40;99.90;;;;;;4143804;28;20030;-69
2021/03/19 06:09:36;;;;;;;8.43;5.28;;;3.40;99.90;;;;;;4141293;28;20038;-69
2021/03/19 06:11:47;;;;;;;9.43;5.22;;;3.40;99.90;;;;;;4155156;28;20038;-70
2021/03/19 06:13:53;;;;;;;9.70;5.75;;;3.40;99.90;;;;;;4146664;28;20040;-70
2021/03/19 06:16:15;;;;;;;7.78;5.57;;;3.30;99.90;;;;;;4154437;28;20037;-70
2021/03/19 06:18:46;;;;;;;;;;;3.40;99.90;;;;;;4156218;28;20033;-70
2021/03/19 06:21:06;;;;;;;8.93;5.18;;;3.30;99.90;;;;;;4148022;28;19920;-70
2021/03/19 06:23:18;;;;;;;9.50;5.13;;;3.30;99.90;;;;;;4126889;28;20136;-70
2021/03/19 06:25:38;;;;;;;7.75;5.25;;;3.30;99.90;;;;;;4155562;28;20021;-70
2021/03/19 06:27:55;;;;;;;7.90;5.05;;;3.30;99.90;;;;;;4153720;28;20042;-71
2021/03/19 06:30:00;;;;;;;13.30;6.28;;;3.30;99.90;;;;;;4155120;28;20033;-70
2021/03/19 06:32:13;;;;;;;12.95;6.80;;;3.30;99.90;;;;;;4110881;28;20072;-70
2021/03/19 06:34:23;;;;;;;9.68;5.90;;;3.30;99.90;;;;;;4152187;28;20038;-70
2021/03/19 06:36:24;;;;;;;8.77;5.65;;;3.30;99.90;;;;;;4158655;28;20044;-70
2021/03/19 06:38:34;;;;;;;10.00;5.93;;;3.20;99.90;;;;;;4158860;28;20033;-70
2021/03/19 06:40:40;;;;;;;10.70;5.80;;;3.30;99.90;;;;;;4134092;28;20091;-71
2021/03/19 06:42:42;;;;;;;8.35;5.75;;;3.30;99.90;;;;;;4138225;28;20517;-70
2021/03/19 06:44:42;;;;;;;9.18;6.10;;;3.30;99.90;;;;;;4153704;28;20109;-70
2021/03/19 06:46:50;;;;;;;10.23;6.35;;;3.30;99.90;;;;;;4154762;28;20037;-70
2021/03/19 06:48:54;;;;;;;9.15;5.80;;;3.30;99.90;;;;;;4158451;28;20091;-71
2021/03/19 06:50:55;;;;;;;9.02;5.88;;;3.30;99.90;;;;;;4133789;28;20037;-71
2021/03/19 06:53:16;;;;;;;9.55;5.75;;;3.30;99.90;;;;;;4152321;28;20040;-70
2021/03/19 06:55:39;;;;;;;9.30;5.82;;;3.30;99.90;;;;;;4149663;28;20041;-70
2021/03/19 06:57:47;;;;;;;7.88;5.43;;;3.40;99.90;;;;;;4179039;28;20489;-70
2021/03/19 06:59:56;;;;;;;8.32;5.55;;;3.40;99.90;;;;;;4139526;28;20441;-71
2021/03/19 07:01:56;;;;;;;9.38;6.13;;;3.40;99.90;;;;;;4156750;28;20041;-70
2021/03/19 07:04:28;;;;;;;9.90;5.78;;;3.50;99.90;;;;;;4149612;28;20106;-70
2021/03/19 07:06:53;;;;;;;7.68;5.30;;;3.50;99.90;;;;;;4157403;28;20477;-70
2021/03/19 07:09:12;;;;;;;9.23;6.13;;;3.50;99.90;;;;;;4155160;28;20494;-70
2021/03/19 07:11:13;;;;;;;9.10;5.90;;;3.50;99.90;;;;;;4155466;28;20040;-70
2021/03/19 07:13:39;;;;;;;9.43;6.10;;;3.50;99.90;;;;;;4148842;28;20128;-70
2021/03/19 07:15:48;;;;;;;10.30;6.60;;;3.60;99.90;;;;;;4128743;28;20385;-70
2021/03/19 07:17:53;;;;;;;8.57;5.82;;;3.60;99.90;;;;;;4156477;28;20112;-70
2021/03/19 07:19:59;;;;;;;9.55;5.95;;;3.60;99.90;;;;;;4141886;28;20054;-71
2021/03/19 07:22:23;;;;;;;11.02;6.20;;;3.60;99.90;;;;;;4152125;28;20037;-71
2021/03/19 07:24:30;;;;;;;7.57;4.93;;;3.70;99.90;;;;;;4152868;28;20493;-71
2021/03/19 07:26:34;;;;;;;10.25;6.07;;;3.70;99.90;;;;;;4158123;28;20705;-71
2021/03/19 07:28:55;;;;;;;11.35;6.00;;;3.70;99.90;;;;;;4153279;28;20053;-71
2021/03/19 07:31:02;;;;;;;10.32;6.38;;;3.80;99.90;;;;;;4156882;28;20049;-71
2021/03/19 07:33:14;;;;;;;8.80;5.10;;;3.80;99.90;;;;;;4158631;28;20068;-70
2021/03/19 07:35:36;;;;;;;9.18;5.43;;;3.70;99.90;;;;;;4152152;28;20044;-71
2021/03/19 07:38:06;;;;;;;9.27;5.70;;;3.80;99.90;;;;;;4153429;28;20393;-71
2021/03/19 07:40:31;;;;;;;7.57;5.38;;;3.90;99.90;;;;;;4152514;28;20061;-71
2021/03/19 07:42:32;;;;;;;8.35;5.43;;;3.90;99.90;;;;;;4144642;28;20033;-71
2021/03/19 07:44:42;;;;;;;11.77;5.50;;;4.00;99.90;;;;;;4147948;28;20096;-71
2021/03/19 07:47:10;;;;;;;8.18;4.80;;;4.00;99.90;;;;;;4150881;28;20128;-71
2021/03/19 07:49:37;;;;;;;8.75;5.57;;;4.10;99.90;;;;;;4153328;28;20046;-70
2021/03/19 07:51:53;;;;;;;10.57;5.68;;;4.10;99.90;;;;;;4158881;28;20112;-70
2021/03/19 07:54:05;;;;;;;10.45;4.80;;;4.10;99.90;;;;;;4148519;28;20540;-70
2021/03/19 07:56:29;;;;;;;7.35;5.03;;;4.20;99.90;;;;;;4153340;28;20061;-70
2021/03/19 07:59:02;;;;;;;13.07;5.80;;;4.20;99.90;;;;;;4155526;28;20132;-70
2021/03/19 08:01:11;;;;;;;8.45;5.20;;;4.30;99.90;;;;;;4160913;28;20052;-70
2021/03/19 08:03:27;;;;;;;10.02;5.45;;;4.50;99.90;;;;;;4159708;28;20040;-71
2021/03/19 08:05:48;;;;;;;7.22;5.32;;;4.60;99.90;;;;;;4157052;28;20026;-71
2021/03/19 08:08:15;;;;;;;7.88;4.90;;;4.70;99.90;;;;;;4158311;28;20116;-70
2021/03/19 08:10:27;;;;;;;9.27;4.97;;;4.80;99.90;;;;;;4158649;28;20032;-70
2021/03/19 08:12:48;;;;;;;10.73;5.15;;;5.00;99.90;;;;;;4155242;28;20529;-70
2021/03/19 08:15:23;;;;;;;7.80;4.53;;;5.00;99.90;;;;;;4157562;28;20095;-70
2021/03/19 08:17:52;;;;;;;10.05;4.38;;;5.20;99.90;;;;;;4134864;28;20125;-70
2021/03/19 08:20:13;;;;;;;7.55;4.35;;;5.40;99.90;;;;;;4158768;28;20663;-70
2021/03/19 08:22:29;;;;;;;6.45;4.13;;;5.50;99.90;;;;;;4159905;28;20026;-70
2021/03/19 08:24:56;;;;;;;6.03;4.10;;;5.50;99.90;;;;;;4157458;28;20047;-70
2021/03/19 08:27:29;;;;;;;8.40;4.07;;;5.80;99.90;;;;;;4159250;28;20029;-71
2021/03/19 08:29:45;;;;;;;4.80;3.53;;;5.90;99.90;;;;;;4104380;28;20092;-70
2021/03/19 08:31:51;;;;;;;5.32;3.70;;;6.10;99.90;;;;;;4156907;28;20041;-70
2021/03/19 08:33:51;;;;;;;5.78;3.67;;;6.10;99.90;;;;;;4159449;28;20033;-70
2021/03/19 08:36:31;;;;;;;5.88;3.88;;;6.40;99.90;;;;;;4157987;28;20614;-70
2021/03/19 08:38:43;;;;;;;7.55;3.83;;;6.70;99.90;;;;;;4153913;28;20049;-70
2021/03/19 08:40:47;;;;;;;8.88;4.18;;;6.80;99.90;;;;;;4155998;28;20033;-70
2021/03/19 08:42:50;;;;;;;5.53;3.60;;;7.00;99.90;;;;;;4148571;28;20076;-70
2021/03/19 08:44:52;;;;;;;5.57;3.67;;;7.20;99.90;;;;;;4152259;28;20096;-70
2021/03/19 08:47:01;;;;;;;5.10;3.05;;;7.20;99.90;;;;;;4151382;28;20042;-70
2021/03/19 08:49:12;;;;;;;4.57;3.30;;;7.30;99.90;;;;;;4150880;28;20029;-70
2021/03/19 08:51:18;;;;;;;6.85;3.55;;;7.40;99.90;;;;;;4147964;28;20060;-70
2021/03/19 08:53:19;;;;;;;7.38;3.30;;;7.20;99.90;;;;;;4153995;28;20445;-70
2021/03/19 08:55:23;;;;;;;7.35;3.40;;;7.30;99.90;;;;;;4139404;28;20030;-70
2021/03/19 08:57:33;;;;;;;4.38;2.92;;;7.40;99.90;;;;;;4156466;28;20121;-70
2021/03/19 08:59:33;;;;;;;5.88;2.97;;;7.40;99.90;;;;;;4153762;28;20038;-70
2021/03/19 09:01:56;;;;;;;7.45;3.05;;;7.50;99.90;;;;;;4154759;28;20468;-70
2021/03/19 09:03:57;;;;;;;6.37;3.30;;;7.70;99.90;;;;;;4155960;28;20048;-70
2021/03/19 09:06:26;;;;;;;5.65;3.42;;;7.40;99.90;;;;;;4160068;28;20120;-70
2021/03/19 09:08:29;;;;;;;4.68;3.00;;;6.80;99.90;;;;;;4150997;28;20056;-70
2021/03/19 09:10:53;;;;;;;5.60;3.50;;;6.90;99.90;;;;;;4158876;28;20045;-69
2021/03/19 09:12:57;;;;;;;5.63;3.25;;;7.00;99.90;;;;;;4150964;28;20077;-70
2021/03/19 09:15:16;;;;;;;5.53;3.25;;;6.80;99.90;;;;;;4153552;28;20030;-69
2021/03/19 09:17:44;;;;;;;10.07;3.38;;;6.80;99.90;;;;;;4151794;28;20034;-69
2021/03/19 09:19:59;;;;;;;6.65;3.08;;;7.00;99.90;;;;;;4159147;28;20037;-69
2021/03/19 09:22:24;;;;;;;4.85;2.83;;;7.40;99.90;;;;;;4167978;28;20112;-70
2021/03/19 09:24:25;;;;;;;6.32;3.30;;;7.60;99.90;;;;;;4155357;28;20719;-69
2021/03/19 09:26:53;;;;;;;5.03;3.08;;;7.90;99.90;;;;;;4158644;28;20033;-69
2021/03/19 09:29:07;;;;;;;5.93;3.17;;;8.00;99.90;;;;;;4154165;28;20033;-69
2021/03/19 09:31:35;;;;;;;6.13;3.30;;;7.70;99.90;;;;;;4158237;28;20143;-69
2021/03/19 09:33:45;;;;;;;7.10;3.28;;;7.60;99.90;;;;;;4151720;28;20038;-69
2021/03/19 09:35:48;;;;;;;6.97;2.88;;;7.60;99.90;;;;;;4158514;28;20029;-69
2021/03/19 09:37:51;;;;;;;6.63;2.70;;;7.70;99.90;;;;;;4157186;28;20033;-69
2021/03/19 09:40:20;;;;;;;;;;;7.70;99.90;;;;;;4159725;28;20030;-69
2021/03/19 09:42:21;;;;;;;6.65;2.97;;;7.80;99.90;;;;;;4150590;28;19959;-69
2021/03/19 09:44:28;;;;;;;4.80;2.58;;;7.50;99.90;;;;;;4152277;28;20137;-70
2021/03/19 09:46:30;;;;;;;4.82;2.80;;;7.60;99.90;;;;;;4158983;28;20477;-69
2021/03/19 09:48:34;;;;;;;5.63;3.10;;;7.70;99.90;;;;;;4155783;28;20045;-69
2021/03/19 09:50:34;;;;;;;5.53;3.15;;;7.90;99.90;;;;;;4149387;28;20072;-69
2021/03/19 09:52:36;;;;;;;4.72;3.00;;;7.90;99.90;;;;;;4157693;28;20057;-69
2021/03/19 09:54:37;;;;;;;4.47;2.95;;;7.90;99.90;;;;;;4154359;28;20033;-69
2021/03/19 09:56:40;;;;;;;6.07;2.70;;;7.80;99.90;;;;;;4151570;28;20041;-69
2021/03/19 09:58:44;;;;;;;4.97;2.53;;;7.80;99.90;;;;;;4156487;28;20053;-69
2021/03/19 10:00:58;;;;;;;5.32;2.83;;;7.50;99.90;;;;;;4157181;28;20030;-69
2021/03/19 10:03:19;;;;;;;6.63;2.63;;;7.30;99.90;;;;;;4157813;28;20140;-69
2021/03/19 10:05:23;;;;;;;4.55;2.58;;;7.40;99.90;;;;;;4151043;28;20125;-69
2021/03/19 10:07:26;;;;;;;5.10;2.17;;;7.40;99.90;;;;;;4158041;28;20497;-69
2021/03/19 10:09:39;;;;;;;6.93;3.08;;;7.40;99.90;;;;;;4159481;28;22316;-69
2021/03/19 10:11:58;;;;;;;5.53;2.30;;;7.40;99.90;;;;;;4152233;28;20049;-69
2021/03/19 10:14:20;;;;;;;4.88;2.72;;;7.50;99.90;;;;;;4156226;28;20057;-69
2021/03/19 10:16:23;;;;;;;3.92;2.20;;;7.40;99.90;;;;;;4155886;28;20029;-69
2021/03/19 10:18:40;;;;;;;5.00;2.38;;;7.40;99.90;;;;;;4155476;28;20741;-69
2021/03/19 10:20:42;;;;;;;3.42;2.40;;;7.40;99.90;;;;;;4159279;28;20041;-69
2021/03/19 10:22:49;;;;;;;4.18;2.38;;;7.50;99.90;;;;;;4158440;28;20092;-69
2021/03/19 10:24:49;;;;;;;2.65;2.00;;;7.50;99.90;;;;;;4158617;28;20627;-69
2021/03/19 10:26:55;;;;;;;3.45;2.22;;;7.50;99.90;;;;;;4157741;28;20033;-69
2021/03/19 10:29:11;;;;;;;5.25;2.38;;;7.60;99.90;;;;;;4159030;28;20061;-70
2021/03/19 10:31:18;;;;;;;5.07;2.17;;;7.70;99.90;;;;;;4153115;28;20636;-69
2021/03/19 10:33:24;;;;;;;4.03;2.33;;;7.70;99.90;;;;;;4158966;28;20136;-69
2021/03/19 10:35:35;;;;;;;3.67;2.10;;;7.60;99.90;;;;;;4158731;28;20037;-69
2021/03/19 10:37:40;;;;;;;2.38;1.58;;;7.60;99.90;;;;;;4158770;28;20090;-69
2021/03/19 10:39:52;;;;;;;3.30;1.80;;;7.50;99.90;;;;;;4154782;28;20382;-69
2021/03/19 10:42:25;;;;;;;5.28;2.13;;;7.50;99.90;;;;;;4156434;28;20044;-69
2021/03/19 10:44:32;;;;;;;4.20;2.10;;;7.60;99.90;;;;;;4151636;28;20038;-69
2021/03/19 10:46:49;;;;;;;2.72;1.98;;;7.70;99.90;;;;;;4148889;28;20037;-69
2021/03/19 10:48:56;;;;;;;7.88;2.47;;;7.70;99.90;;;;;;4147540;28;20096;-70
2021/03/19 10:51:08;;;;;;;5.90;2.20;;;7.70;99.90;;;;;;4153897;28;20104;-69
2021/03/19 10:53:16;;;;;;;3.55;1.70;;;7.50;99.90;;;;;;4153699;28;20046;-69
2021/03/19 10:55:31;;;;;;;3.67;1.92;;;7.60;99.90;;;;;;4150536;28;20039;-69
2021/03/19 10:57:39;;;;;;;2.75;1.65;;;7.70;99.90;;;;;;4146079;28;20045;-69
2021/03/19 10:59:40;;;;;;;4.07;1.52;;;7.70;99.90;;;;;;4145468;28;20095;-69
2021/03/19 11:01:47;;;;;;;3.10;1.80;;;7.70;99.90;;;;;;4155590;28;20037;-69
2021/03/19 11:03:49;;;;;;;2.28;1.65;;;7.80;99.90;;;;;;4157272;28;20087;-69
2021/03/19 11:05:58;;;;;;;2.67;1.67;;;7.90;99.90;;;;;;4156772;28;20025;-69
2021/03/19 11:08:14;;;;;;;2.25;1.65;;;8.10;99.90;;;;;;4155527;28;20704;-69
2021/03/19 11:10:43;;;;;;;3.17;1.55;;;8.20;99.90;;;;;;4155956;28;20105;-69
2021/03/19 11:12:50;;;;;;;1.77;1.30;;;8.30;99.90;;;;;;4147384;28;20045;-69
2021/03/19 11:14:58;;;;;;;4.10;1.70;;;8.30;99.90;;;;;;4157655;28;20037;-69
2021/03/19 11:17:16;;;;;;;3.05;1.55;;;8.40;99.90;;;;;;4154012;28;20117;-69
2021/03/19 11:19:26;;;;;;;1.83;1.48;;;8.40;99.90;;;;;;4162298;28;20034;-69
2021/03/19 11:21:31;;;;;;;2.47;1.30;;;8.40;99.90;;;;;;4161144;28;20034;-69